sensor_id;sensor_type;location;lat;lon;timestamp;temperature;humidity
5346;DHT22;2695;49.444;11.054;2023-03-19T00:01:02;12.30;92.60
5346;DHT22;2695;49.444;11.054;2023-03-19T00:03:30;12.20;92.80
5346;DHT22;2695;49.444;11.054;2023-03-19T00:05:58;12.20;92.80
5346;DHT22;2695;49.444;11.054;2023-03-19T00:08:26;12.20;92.90
5346;DHT22;2695;49.444;11.054;2023-03-19T00:10:54;12.10;93.10
5346;DHT22;2695;49.444;11.054;2023-03-19T00:13:22;12.10;93.20
5346;DHT22;2695;49.444;11.054;2023-03-19T00:15:50;12.00;93.20
5346;DHT22;2695;49.444;11.054;2023-03-19T00:18:19;11.90;93.30
5346;DHT22;2695;49.444;11.054;2023-03-19T00:20:48;11.90;93.50
5346;DHT22;2695;49.444;11.054;2023-03-19T00:23:16;11.90;93.70
5346;DHT22;2695;49.444;11.054;2023-03-19T00:25:44;11.80;93.90
5346;DHT22;2695;49.444;11.054;2023-03-19T00:28:12;11.80;94.00
5346;DHT22;2695;49.444;11.054;2023-03-19T00:30:40;11.80;94.10
5346;DHT22;2695;49.444;11.054;2023-03-19T00:33:10;11.90;94.20
5346;DHT22;2695;49.444;11.054;2023-03-19T00:35:40;11.80;94.30
5346;DHT22;2695;49.444;11.054;2023-03-19T00:38:08;11.80;94.50
5346;DHT22;2695;49.444;11.054;2023-03-19T00:40:36;11.90;94.60
5346;DHT22;2695;49.444;11.054;2023-03-19T00:43:04;11.90;94.60
5346;DHT22;2695;49.444;11.054;2023-03-19T00:45:32;11.90;94.70
5346;DHT22;2695;49.444;11.054;2023-03-19T00:48:01;12.00;94.80
5346;DHT22;2695;49.444;11.054;2023-03-19T00:50:28;12.00;94.70
5346;DHT22;2695;49.444;11.054;2023-03-19T00:52:58;11.90;94.80
5346;DHT22;2695;49.444;11.054;2023-03-19T00:55:27;11.80;94.90
5346;DHT22;2695;49.444;11.054;2023-03-19T00:57:55;11.80;95.10
5346;DHT22;2695;49.444;11.054;2023-03-19T01:00:23;11.70;95.30
5346;DHT22;2695;49.444;11.054;2023-03-19T01:02:51;11.60;95.60
5346;DHT22;2695;49.444;11.054;2023-03-19T01:05:19;11.60;96.10
5346;DHT22;2695;49.444;11.054;2023-03-19T01:07:47;11.50;96.60
5346;DHT22;2695;49.444;11.054;2023-03-19T01:10:18;11.50;96.90
5346;DHT22;2695;49.444;11.054;2023-03-19T01:12:47;11.40;97.10
5346;DHT22;2695;49.444;11.054;2023-03-19T01:15:16;11.30;97.40
5346;DHT22;2695;49.444;11.054;2023-03-19T01:17:44;11.20;97.70
5346;DHT22;2695;49.444;11.054;2023-03-19T01:20:13;11.20;98.10
5346;DHT22;2695;49.444;11.054;2023-03-19T01:22:44;11.10;98.50
5346;DHT22;2695;49.444;11.054;2023-03-19T01:25:13;11.10;98.60
5346;DHT22;2695;49.444;11.054;2023-03-19T01:27:42;11.10;99.00
5346;DHT22;2695;49.444;11.054;2023-03-19T01:30:11;11.00;99.20
5346;DHT22;2695;49.444;11.054;2023-03-19T01:32:39;10.90;99.40
5346;DHT22;2695;49.444;11.054;2023-03-19T01:35:07;10.90;99.70
5346;DHT22;2695;49.444;11.054;2023-03-19T01:37:36;10.80;99.60
5346;DHT22;2695;49.444;11.054;2023-03-19T01:40:05;10.80;99.90
5346;DHT22;2695;49.444;11.054;2023-03-19T01:42:52;10.80;99.90
5346;DHT22;2695;49.444;11.054;2023-03-19T01:45:31;10.80;99.90
5346;DHT22;2695;49.444;11.054;2023-03-19T01:48:00;10.70;99.90
5346;DHT22;2695;49.444;11.054;2023-03-19T01:50:33;10.80;99.90
5346;DHT22;2695;49.444;11.054;2023-03-19T01:53:04;10.80;99.90
5346;DHT22;2695;49.444;11.054;2023-03-19T01:55:33;10.80;99.90
5346;DHT22;2695;49.444;11.054;2023-03-19T01:58:04;10.80;99.90
5346;DHT22;2695;49.444;11.054;2023-03-19T02:00:33;10.80;99.90
5346;DHT22;2695;49.444;11.054;2023-03-19T02:03:02;10.80;99.90
5346;DHT22;2695;49.444;11.054;2023-03-19T02:05:30;10.80;99.90
5346;DHT22;2695;49.444;11.054;2023-03-19T02:08:00;10.70;99.90
5346;DHT22;2695;49.444;11.054;2023-03-19T02:10:30;10.70;99.90
5346;DHT22;2695;49.444;11.054;2023-03-19T02:12:58;10.70;99.90
5346;DHT22;2695;49.444;11.054;2023-03-19T02:15:28;10.60;99.90
5346;DHT22;2695;49.444;11.054;2023-03-19T02:17:56;10.60;99.90
5346;DHT22;2695;49.444;11.054;2023-03-19T02:20:28;10.60;99.90
5346;DHT22;2695;49.444;11.054;2023-03-19T02:23:06;10.50;99.90
5346;DHT22;2695;49.444;11.054;2023-03-19T02:25:40;10.40;99.90
5346;DHT22;2695;49.444;11.054;2023-03-19T02:28:15;10.40;99.90
5346;DHT22;2695;49.444;11.054;2023-03-19T02:30:44;10.50;99.90
5346;DHT22;2695;49.444;11.054;2023-03-19T02:33:14;10.50;99.90
5346;DHT22;2695;49.444;11.054;2023-03-19T02:35:44;10.60;99.90
5346;DHT22;2695;49.444;11.054;2023-03-19T02:38:13;10.70;99.90
5346;DHT22;2695;49.444;11.054;2023-03-19T02:40:46;10.70;99.90
5346;DHT22;2695;49.444;11.054;2023-03-19T02:43:19;10.70;99.90
5346;DHT22;2695;49.444;11.054;2023-03-19T02:45:47;10.80;99.90
5346;DHT22;2695;49.444;11.054;2023-03-19T02:48:16;10.80;99.90
5346;DHT22;2695;49.444;11.054;2023-03-19T02:50:46;10.90;99.90
5346;DHT22;2695;49.444;11.054;2023-03-19T02:53:14;10.90;99.90
5346;DHT22;2695;49.444;11.054;2023-03-19T02:55:43;10.90;99.90
5346;DHT22;2695;49.444;11.054;2023-03-19T02:58:11;10.90;99.90
5346;DHT22;2695;49.444;11.054;2023-03-19T03:00:41;10.80;99.90
5346;DHT22;2695;49.444;11.054;2023-03-19T03:03:10;10.80;99.90
5346;DHT22;2695;49.444;11.054;2023-03-19T03:05:38;10.80;99.90
5346;DHT22;2695;49.444;11.054;2023-03-19T03:08:06;10.70;99.90
5346;DHT22;2695;49.444;11.054;2023-03-19T03:10:35;10.60;99.90
5346;DHT22;2695;49.444;11.054;2023-03-19T03:13:03;10.70;99.90
5346;DHT22;2695;49.444;11.054;2023-03-19T03:15:31;10.60;99.90
5346;DHT22;2695;49.444;11.054;2023-03-19T03:18:01;10.50;99.90
5346;DHT22;2695;49.444;11.054;2023-03-19T03:20:29;10.40;99.90
5346;DHT22;2695;49.444;11.054;2023-03-19T03:22:57;10.60;99.90
5346;DHT22;2695;49.444;11.054;2023-03-19T03:25:25;10.50;99.90
5346;DHT22;2695;49.444;11.054;2023-03-19T03:27:53;10.50;99.90
5346;DHT22;2695;49.444;11.054;2023-03-19T03:30:21;10.50;99.90
5346;DHT22;2695;49.444;11.054;2023-03-19T03:32:49;10.40;99.90
5346;DHT22;2695;49.444;11.054;2023-03-19T03:35:19;10.40;99.90
5346;DHT22;2695;49.444;11.054;2023-03-19T03:37:48;10.40;99.90
5346;DHT22;2695;49.444;11.054;2023-03-19T03:40:17;10.40;99.90
5346;DHT22;2695;49.444;11.054;2023-03-19T03:42:46;10.40;99.90
5346;DHT22;2695;49.444;11.054;2023-03-19T03:45:14;10.40;99.90
5346;DHT22;2695;49.444;11.054;2023-03-19T03:47:42;10.40;99.90
5346;DHT22;2695;49.444;11.054;2023-03-19T03:50:10;10.40;99.90
5346;DHT22;2695;49.444;11.054;2023-03-19T03:52:40;10.40;99.90
5346;DHT22;2695;49.444;11.054;2023-03-19T03:55:08;10.40;99.90
5346;DHT22;2695;49.444;11.054;2023-03-19T03:57:37;10.40;99.90
5346;DHT22;2695;49.444;11.054;2023-03-19T04:00:06;10.40;99.90
5346;DHT22;2695;49.444;11.054;2023-03-19T04:02:34;10.40;99.90
5346;DHT22;2695;49.444;11.054;2023-03-19T04:05:02;10.40;99.90
5346;DHT22;2695;49.444;11.054;2023-03-19T04:07:30;10.40;99.90
5346;DHT22;2695;49.444;11.054;2023-03-19T04:10:00;10.40;99.90
5346;DHT22;2695;49.444;11.054;2023-03-19T04:12:28;10.40;99.90
5346;DHT22;2695;49.444;11.054;2023-03-19T04:14:56;10.40;99.90
5346;DHT22;2695;49.444;11.054;2023-03-19T04:17:24;10.50;99.90
5346;DHT22;2695;49.444;11.054;2023-03-19T04:19:52;10.50;99.90
5346;DHT22;2695;49.444;11.054;2023-03-19T04:22:20;10.60;99.90
5346;DHT22;2695;49.444;11.054;2023-03-19T04:24:49;10.60;99.90
5346;DHT22;2695;49.444;11.054;2023-03-19T04:27:18;10.60;99.90
5346;DHT22;2695;49.444;11.054;2023-03-19T04:29:46;10.50;99.90
5346;DHT22;2695;49.444;11.054;2023-03-19T04:32:14;10.50;99.90
5346;DHT22;2695;49.444;11.054;2023-03-19T04:34:42;10.50;99.90
5346;DHT22;2695;49.444;11.054;2023-03-19T04:37:10;10.50;99.90
5346;DHT22;2695;49.444;11.054;2023-03-19T04:39:38;10.60;99.90
5346;DHT22;2695;49.444;11.054;2023-03-19T04:42:06;10.60;99.90
5346;DHT22;2695;49.444;11.054;2023-03-19T04:44:36;10.60;99.90
5346;DHT22;2695;49.444;11.054;2023-03-19T04:47:07;10.60;99.90
5346;DHT22;2695;49.444;11.054;2023-03-19T04:49:35;10.70;99.90
5346;DHT22;2695;49.444;11.054;2023-03-19T04:52:04;10.70;99.90
5346;DHT22;2695;49.444;11.054;2023-03-19T04:54:32;10.70;99.90
5346;DHT22;2695;49.444;11.054;2023-03-19T04:57:00;10.60;99.90
5346;DHT22;2695;49.444;11.054;2023-03-19T04:59:28;10.60;99.90
5346;DHT22;2695;49.444;11.054;2023-03-19T05:01:58;10.50;99.90
5346;DHT22;2695;49.444;11.054;2023-03-19T05:04:26;10.50;99.90
5346;DHT22;2695;49.444;11.054;2023-03-19T05:06:54;10.50;99.90
5346;DHT22;2695;49.444;11.054;2023-03-19T05:09:23;10.50;99.90
5346;DHT22;2695;49.444;11.054;2023-03-19T05:11:51;10.50;99.90
5346;DHT22;2695;49.444;11.054;2023-03-19T05:14:20;10.50;99.90
5346;DHT22;2695;49.444;11.054;2023-03-19T05:16:48;10.60;99.90
5346;DHT22;2695;49.444;11.054;2023-03-19T05:19:19;10.50;99.90
5346;DHT22;2695;49.444;11.054;2023-03-19T05:21:48;10.50;99.90
5346;DHT22;2695;49.444;11.054;2023-03-19T05:24:16;10.40;99.90
5346;DHT22;2695;49.444;11.054;2023-03-19T05:26:44;10.40;99.90
5346;DHT22;2695;49.444;11.054;2023-03-19T05:29:12;10.40;99.90
5346;DHT22;2695;49.444;11.054;2023-03-19T05:31:40;10.40;99.90
5346;DHT22;2695;49.444;11.054;2023-03-19T05:34:08;10.50;99.90
5346;DHT22;2695;49.444;11.054;2023-03-19T05:36:38;10.50;99.90
5346;DHT22;2695;49.444;11.054;2023-03-19T05:39:06;10.60;99.90
5346;DHT22;2695;49.444;11.054;2023-03-19T05:41:34;10.60;99.90
5346;DHT22;2695;49.444;11.054;2023-03-19T05:44:03;10.60;99.90
5346;DHT22;2695;49.444;11.054;2023-03-19T05:46:31;10.60;99.90
5346;DHT22;2695;49.444;11.054;2023-03-19T05:48:59;10.60;99.90
5346;DHT22;2695;49.444;11.054;2023-03-19T05:51:27;10.70;99.90
5346;DHT22;2695;49.444;11.054;2023-03-19T05:53:57;10.70;99.90
5346;DHT22;2695;49.444;11.054;2023-03-19T05:56:25;10.80;99.90
5346;DHT22;2695;49.444;11.054;2023-03-19T05:58:54;10.80;99.90
5346;DHT22;2695;49.444;11.054;2023-03-19T06:01:22;10.90;99.90
5346;DHT22;2695;49.444;11.054;2023-03-19T06:03:51;10.90;99.90
5346;DHT22;2695;49.444;11.054;2023-03-19T06:06:19;10.90;99.90
5346;DHT22;2695;49.444;11.054;2023-03-19T06:08:47;11.00;99.90
5346;DHT22;2695;49.444;11.054;2023-03-19T06:11:16;11.00;99.90
5346;DHT22;2695;49.444;11.054;2023-03-19T06:13:45;11.00;99.90
5346;DHT22;2695;49.444;11.054;2023-03-19T06:16:13;11.00;99.90
5346;DHT22;2695;49.444;11.054;2023-03-19T06:18:43;11.10;99.90
5346;DHT22;2695;49.444;11.054;2023-03-19T06:21:12;11.10;99.90
5346;DHT22;2695;49.444;11.054;2023-03-19T06:23:40;11.10;99.90
5346;DHT22;2695;49.444;11.054;2023-03-19T06:26:08;11.20;99.90
5346;DHT22;2695;49.444;11.054;2023-03-19T06:28:38;11.20;99.90
5346;DHT22;2695;49.444;11.054;2023-03-19T06:31:06;11.30;99.90
5346;DHT22;2695;49.444;11.054;2023-03-19T06:33:34;11.40;99.90
5346;DHT22;2695;49.444;11.054;2023-03-19T06:36:03;11.50;99.90
5346;DHT22;2695;49.444;11.054;2023-03-19T06:38:31;11.50;99.90
5346;DHT22;2695;49.444;11.054;2023-03-19T06:40:59;11.60;99.90
5346;DHT22;2695;49.444;11.054;2023-03-19T06:43:27;11.70;99.90
5346;DHT22;2695;49.444;11.054;2023-03-19T06:45:58;11.80;99.90
5346;DHT22;2695;49.444;11.054;2023-03-19T06:48:26;11.80;99.90
5346;DHT22;2695;49.444;11.054;2023-03-19T06:50:54;11.90;99.90
5346;DHT22;2695;49.444;11.054;2023-03-19T06:53:28;11.90;99.90
5346;DHT22;2695;49.444;11.054;2023-03-19T06:55:56;12.00;99.90
5346;DHT22;2695;49.444;11.054;2023-03-19T06:58:24;12.10;99.90
5346;DHT22;2695;49.444;11.054;2023-03-19T07:00:52;12.10;99.90
5346;DHT22;2695;49.444;11.054;2023-03-19T07:03:22;12.20;99.90
5346;DHT22;2695;49.444;11.054;2023-03-19T07:05:50;12.40;99.90
5346;DHT22;2695;49.444;11.054;2023-03-19T07:08:18;12.50;99.90
5346;DHT22;2695;49.444;11.054;2023-03-19T07:10:46;12.60;99.90
5346;DHT22;2695;49.444;11.054;2023-03-19T07:13:14;12.70;99.90
5346;DHT22;2695;49.444;11.054;2023-03-19T07:15:46;12.80;99.90
5346;DHT22;2695;49.444;11.054;2023-03-19T07:18:14;12.90;99.90
5346;DHT22;2695;49.444;11.054;2023-03-19T07:20:43;13.00;99.90
5346;DHT22;2695;49.444;11.054;2023-03-19T07:23:11;13.00;99.90
5346;DHT22;2695;49.444;11.054;2023-03-19T07:25:39;13.00;99.90
5346;DHT22;2695;49.444;11.054;2023-03-19T07:28:07;13.10;99.90
5346;DHT22;2695;49.444;11.054;2023-03-19T07:30:37;13.10;99.90
5346;DHT22;2695;49.444;11.054;2023-03-19T07:33:06;13.10;99.90
5346;DHT22;2695;49.444;11.054;2023-03-19T07:35:34;13.10;99.90
5346;DHT22;2695;49.444;11.054;2023-03-19T07:38:04;13.10;99.90
5346;DHT22;2695;49.444;11.054;2023-03-19T07:40:32;13.00;99.90
5346;DHT22;2695;49.444;11.054;2023-03-19T07:43:00;12.90;99.90
5346;DHT22;2695;49.444;11.054;2023-03-19T07:45:41;12.90;99.90
5346;DHT22;2695;49.444;11.054;2023-03-19T07:48:47;12.80;99.90
5346;DHT22;2695;49.444;11.054;2023-03-19T07:51:15;12.60;99.90
5346;DHT22;2695;49.444;11.054;2023-03-19T07:53:45;12.70;99.90
5346;DHT22;2695;49.444;11.054;2023-03-19T07:56:13;12.60;99.90
5346;DHT22;2695;49.444;11.054;2023-03-19T07:58:41;12.70;99.90
5346;DHT22;2695;49.444;11.054;2023-03-19T08:01:09;12.80;99.90
5346;DHT22;2695;49.444;11.054;2023-03-19T08:03:37;12.80;99.90
5346;DHT22;2695;49.444;11.054;2023-03-19T08:06:05;12.80;99.90
5346;DHT22;2695;49.444;11.054;2023-03-19T08:08:33;12.90;99.90
5346;DHT22;2695;49.444;11.054;2023-03-19T08:11:03;12.90;99.90
5346;DHT22;2695;49.444;11.054;2023-03-19T08:13:32;13.00;99.90
5346;DHT22;2695;49.444;11.054;2023-03-19T08:16:00;13.10;99.90
5346;DHT22;2695;49.444;11.054;2023-03-19T08:18:28;13.20;99.90
5346;DHT22;2695;49.444;11.054;2023-03-19T08:20:56;13.30;99.90
5346;DHT22;2695;49.444;11.054;2023-03-19T08:23:25;13.40;99.90
5346;DHT22;2695;49.444;11.054;2023-03-19T08:25:54;13.40;99.90
5346;DHT22;2695;49.444;11.054;2023-03-19T08:28:24;13.40;99.90
5346;DHT22;2695;49.444;11.054;2023-03-19T08:30:52;13.40;99.90
5346;DHT22;2695;49.444;11.054;2023-03-19T08:33:21;13.30;99.90
5346;DHT22;2695;49.444;11.054;2023-03-19T08:35:50;13.30;99.90
5346;DHT22;2695;49.444;11.054;2023-03-19T08:38:19;13.30;99.90
5346;DHT22;2695;49.444;11.054;2023-03-19T08:40:47;13.20;99.90
5346;DHT22;2695;49.444;11.054;2023-03-19T08:43:15;13.10;99.90
5346;DHT22;2695;49.444;11.054;2023-03-19T08:45:45;13.10;99.90
5346;DHT22;2695;49.444;11.054;2023-03-19T08:48:14;13.10;99.90
5346;DHT22;2695;49.444;11.054;2023-03-19T08:50:42;12.90;99.90
5346;DHT22;2695;49.444;11.054;2023-03-19T08:53:10;13.00;99.90
5346;DHT22;2695;49.444;11.054;2023-03-19T08:56:31;12.90;99.90
5346;DHT22;2695;49.444;11.054;2023-03-19T08:59:29;12.80;99.90
5346;DHT22;2695;49.444;11.054;2023-03-19T09:02:37;12.80;99.90
5346;DHT22;2695;49.444;11.054;2023-03-19T09:05:18;12.70;99.90
5346;DHT22;2695;49.444;11.054;2023-03-19T09:07:49;12.70;99.90
5346;DHT22;2695;49.444;11.054;2023-03-19T09:10:18;12.70;99.90
5346;DHT22;2695;49.444;11.054;2023-03-19T09:12:46;12.70;99.90
5346;DHT22;2695;49.444;11.054;2023-03-19T09:15:15;12.70;99.90
5346;DHT22;2695;49.444;11.054;2023-03-19T09:17:44;12.70;99.90
5346;DHT22;2695;49.444;11.054;2023-03-19T09:20:12;12.80;99.90
5346;DHT22;2695;49.444;11.054;2023-03-19T09:22:41;13.00;99.90
5346;DHT22;2695;49.444;11.054;2023-03-19T09:25:10;13.00;99.90
5346;DHT22;2695;49.444;11.054;2023-03-19T09:27:38;13.10;99.90
5346;DHT22;2695;49.444;11.054;2023-03-19T09:30:07;13.20;99.90
5346;DHT22;2695;49.444;11.054;2023-03-19T09:32:36;13.20;99.90
5346;DHT22;2695;49.444;11.054;2023-03-19T09:35:07;13.20;99.90
5346;DHT22;2695;49.444;11.054;2023-03-19T09:37:36;13.20;99.90
5346;DHT22;2695;49.444;11.054;2023-03-19T09:40:05;13.20;99.90
5346;DHT22;2695;49.444;11.054;2023-03-19T09:42:47;13.30;99.90
5346;DHT22;2695;49.444;11.054;2023-03-19T09:45:22;13.30;99.90
5346;DHT22;2695;49.444;11.054;2023-03-19T09:47:54;13.40;99.90
5346;DHT22;2695;49.444;11.054;2023-03-19T09:50:25;13.50;99.90
5346;DHT22;2695;49.444;11.054;2023-03-19T09:52:59;13.60;99.90
5346;DHT22;2695;49.444;11.054;2023-03-19T09:55:34;13.70;99.90
5346;DHT22;2695;49.444;11.054;2023-03-19T09:58:12;13.70;99.90
5346;DHT22;2695;49.444;11.054;2023-03-19T10:00:46;13.80;99.90
5346;DHT22;2695;49.444;11.054;2023-03-19T10:03:32;13.80;99.90
5346;DHT22;2695;49.444;11.054;2023-03-19T10:06:25;13.90;99.90
5346;DHT22;2695;49.444;11.054;2023-03-19T10:09:19;13.90;99.90
5346;DHT22;2695;49.444;11.054;2023-03-19T10:12:40;13.90;99.90
5346;DHT22;2695;49.444;11.054;2023-03-19T10:15:24;13.80;99.90
5346;DHT22;2695;49.444;11.054;2023-03-19T10:18:07;14.00;99.90
5346;DHT22;2695;49.444;11.054;2023-03-19T10:20:43;13.80;99.90
5346;DHT22;2695;49.444;11.054;2023-03-19T10:23:31;13.60;99.90
5346;DHT22;2695;49.444;11.054;2023-03-19T10:26:05;13.50;99.90
5346;DHT22;2695;49.444;11.054;2023-03-19T10:28:40;13.30;99.90
5346;DHT22;2695;49.444;11.054;2023-03-19T10:31:24;13.30;99.90
5346;DHT22;2695;49.444;11.054;2023-03-19T10:34:09;13.20;99.90
5346;DHT22;2695;49.444;11.054;2023-03-19T10:36:40;13.20;99.90
5346;DHT22;2695;49.444;11.054;2023-03-19T10:39:16;13.20;99.90
5346;DHT22;2695;49.444;11.054;2023-03-19T10:41:51;13.30;99.90
5346;DHT22;2695;49.444;11.054;2023-03-19T10:44:27;13.20;99.90
5346;DHT22;2695;49.444;11.054;2023-03-19T10:46:57;13.20;99.90
5346;DHT22;2695;49.444;11.054;2023-03-19T10:49:28;13.20;99.90
5346;DHT22;2695;49.444;11.054;2023-03-19T10:52:02;13.20;99.90
5346;DHT22;2695;49.444;11.054;2023-03-19T10:54:31;13.20;99.90
5346;DHT22;2695;49.444;11.054;2023-03-19T10:57:00;13.30;99.90
5346;DHT22;2695;49.444;11.054;2023-03-19T10:59:32;13.40;99.90
5346;DHT22;2695;49.444;11.054;2023-03-19T11:02:14;13.50;99.90
5346;DHT22;2695;49.444;11.054;2023-03-19T11:04:42;13.80;99.90
5346;DHT22;2695;49.444;11.054;2023-03-19T11:07:12;13.80;99.90
5346;DHT22;2695;49.444;11.054;2023-03-19T11:09:44;14.00;99.90
5346;DHT22;2695;49.444;11.054;2023-03-19T11:12:17;14.20;99.90
5346;DHT22;2695;49.444;11.054;2023-03-19T11:14:47;14.60;99.90
5346;DHT22;2695;49.444;11.054;2023-03-19T11:17:20;14.80;99.90
5346;DHT22;2695;49.444;11.054;2023-03-19T11:20:12;15.00;99.90
5346;DHT22;2695;49.444;11.054;2023-03-19T11:22:51;15.20;99.90
5346;DHT22;2695;49.444;11.054;2023-03-19T11:25:35;15.50;99.90
5346;DHT22;2695;49.444;11.054;2023-03-19T11:28:08;15.60;99.90
5346;DHT22;2695;49.444;11.054;2023-03-19T11:37:01;17.00;99.90
5346;DHT22;2695;49.444;11.054;2023-03-19T11:39:56;17.40;99.90
5346;DHT22;2695;49.444;11.054;2023-03-19T11:45:56;17.80;99.90
5346;DHT22;2695;49.444;11.054;2023-03-19T11:49:03;17.90;99.90
5346;DHT22;2695;49.444;11.054;2023-03-19T11:51:44;18.00;99.90
5346;DHT22;2695;49.444;11.054;2023-03-19T11:54:26;18.00;99.90
5346;DHT22;2695;49.444;11.054;2023-03-19T11:57:16;18.40;99.90
5346;DHT22;2695;49.444;11.054;2023-03-19T12:00:26;18.40;99.90
5346;DHT22;2695;49.444;11.054;2023-03-19T12:03:53;18.40;99.90
5346;DHT22;2695;49.444;11.054;2023-03-19T12:06:52;18.60;99.90
5346;DHT22;2695;49.444;11.054;2023-03-19T12:09:35;19.10;99.90
5346;DHT22;2695;49.444;11.054;2023-03-19T12:12:17;19.40;99.90
5346;DHT22;2695;49.444;11.054;2023-03-19T12:15:23;19.30;99.90
5346;DHT22;2695;49.444;11.054;2023-03-19T12:18:18;19.00;99.90
5346;DHT22;2695;49.444;11.054;2023-03-19T12:21:02;18.60;99.90
5346;DHT22;2695;49.444;11.054;2023-03-19T12:24:10;18.10;99.90
5346;DHT22;2695;49.444;11.054;2023-03-19T12:27:05;17.70;99.90
5346;DHT22;2695;49.444;11.054;2023-03-19T12:29:56;17.50;99.90
5346;DHT22;2695;49.444;11.054;2023-03-19T12:40:01;17.30;99.90
5346;DHT22;2695;49.444;11.054;2023-03-19T12:42:54;17.30;99.90
5346;DHT22;2695;49.444;11.054;2023-03-19T12:45:42;17.40;99.90
5346;DHT22;2695;49.444;11.054;2023-03-19T12:48:14;17.60;99.90
5346;DHT22;2695;49.444;11.054;2023-03-19T12:50:48;17.90;99.90
5346;DHT22;2695;49.444;11.054;2023-03-19T12:53:38;18.10;99.90
5346;DHT22;2695;49.444;11.054;2023-03-19T12:56:11;18.20;99.90
5346;DHT22;2695;49.444;11.054;2023-03-19T12:58:50;18.40;99.90
5346;DHT22;2695;49.444;11.054;2023-03-19T13:01:27;18.70;99.90
5346;DHT22;2695;49.444;11.054;2023-03-19T13:04:02;18.70;99.90
5346;DHT22;2695;49.444;11.054;2023-03-19T13:06:35;18.80;99.90
5346;DHT22;2695;49.444;11.054;2023-03-19T13:09:31;18.70;99.90
5346;DHT22;2695;49.444;11.054;2023-03-19T13:12:35;18.40;99.90
5346;DHT22;2695;49.444;11.054;2023-03-19T13:15:08;18.10;99.90
5346;DHT22;2695;49.444;11.054;2023-03-19T13:17:47;17.70;99.90
5346;DHT22;2695;49.444;11.054;2023-03-19T13:20:19;17.40;99.90
5346;DHT22;2695;49.444;11.054;2023-03-19T13:22:54;17.20;99.90
5346;DHT22;2695;49.444;11.054;2023-03-19T13:25:30;17.20;99.90
5346;DHT22;2695;49.444;11.054;2023-03-19T13:28:00;17.10;99.90
5346;DHT22;2695;49.444;11.054;2023-03-19T13:30:29;17.20;99.90
5346;DHT22;2695;49.444;11.054;2023-03-19T13:33:02;17.10;99.90
5346;DHT22;2695;49.444;11.054;2023-03-19T13:35:37;17.00;99.90
5346;DHT22;2695;49.444;11.054;2023-03-19T13:38:19;16.90;99.90
5346;DHT22;2695;49.444;11.054;2023-03-19T13:40:55;16.90;99.90
5346;DHT22;2695;49.444;11.054;2023-03-19T13:43:52;16.80;99.90
5346;DHT22;2695;49.444;11.054;2023-03-19T13:46:36;16.80;99.90
5346;DHT22;2695;49.444;11.054;2023-03-19T13:51:59;16.70;99.90
5346;DHT22;2695;49.444;11.054;2023-03-19T13:54:33;16.70;99.90
5346;DHT22;2695;49.444;11.054;2023-03-19T13:57:18;16.70;99.90
5346;DHT22;2695;49.444;11.054;2023-03-19T13:59:56;16.60;99.90
5346;DHT22;2695;49.444;11.054;2023-03-19T14:02:51;16.60;99.90
5346;DHT22;2695;49.444;11.054;2023-03-19T14:05:20;16.70;99.90
5346;DHT22;2695;49.444;11.054;2023-03-19T14:07:52;16.60;99.90
5346;DHT22;2695;49.444;11.054;2023-03-19T14:10:24;16.60;99.90
5346;DHT22;2695;49.444;11.054;2023-03-19T14:13:04;16.50;99.90
5346;DHT22;2695;49.444;11.054;2023-03-19T14:15:33;16.40;99.90
5346;DHT22;2695;49.444;11.054;2023-03-19T14:18:04;16.40;99.90
5346;DHT22;2695;49.444;11.054;2023-03-19T14:20:43;16.30;99.90
5346;DHT22;2695;49.444;11.054;2023-03-19T14:23:21;16.30;99.90
5346;DHT22;2695;49.444;11.054;2023-03-19T14:26:15;16.30;99.90
5346;DHT22;2695;49.444;11.054;2023-03-19T14:28:53;16.40;99.90
5346;DHT22;2695;49.444;11.054;2023-03-19T14:31:34;16.50;99.90
5346;DHT22;2695;49.444;11.054;2023-03-19T14:34:14;16.50;99.90
5346;DHT22;2695;49.444;11.054;2023-03-19T14:36:48;16.50;99.90
5346;DHT22;2695;49.444;11.054;2023-03-19T14:39:21;16.50;99.90
5346;DHT22;2695;49.444;11.054;2023-03-19T14:41:54;16.60;99.90
5346;DHT22;2695;49.444;11.054;2023-03-19T14:47:51;16.70;99.90
5346;DHT22;2695;49.444;11.054;2023-03-19T14:50:41;16.70;99.90
5346;DHT22;2695;49.444;11.054;2023-03-19T14:53:19;16.60;99.90
5346;DHT22;2695;49.444;11.054;2023-03-19T14:55:54;16.60;99.90
5346;DHT22;2695;49.444;11.054;2023-03-19T14:58:22;16.50;99.90
5346;DHT22;2695;49.444;11.054;2023-03-19T15:00:53;16.60;99.90
5346;DHT22;2695;49.444;11.054;2023-03-19T15:03:29;16.60;99.90
5346;DHT22;2695;49.444;11.054;2023-03-19T15:08:50;16.80;99.90
5346;DHT22;2695;49.444;11.054;2023-03-19T15:11:37;16.80;99.90
5346;DHT22;2695;49.444;11.054;2023-03-19T15:14:26;16.70;99.90
5346;DHT22;2695;49.444;11.054;2023-03-19T15:17:07;16.60;99.90
5346;DHT22;2695;49.444;11.054;2023-03-19T15:19:38;16.70;99.90
5346;DHT22;2695;49.444;11.054;2023-03-19T15:22:12;16.70;99.90
5346;DHT22;2695;49.444;11.054;2023-03-19T15:24:42;16.70;99.90
5346;DHT22;2695;49.444;11.054;2023-03-19T15:27:21;16.80;99.90
5346;DHT22;2695;49.444;11.054;2023-03-19T15:29:52;16.90;99.90
5346;DHT22;2695;49.444;11.054;2023-03-19T15:32:39;16.90;99.90
5346;DHT22;2695;49.444;11.054;2023-03-19T15:35:31;16.80;99.90
5346;DHT22;2695;49.444;11.054;2023-03-19T15:38:05;16.70;99.90
5346;DHT22;2695;49.444;11.054;2023-03-19T15:40:36;16.60;99.90
5346;DHT22;2695;49.444;11.054;2023-03-19T15:43:04;16.50;99.90
5346;DHT22;2695;49.444;11.054;2023-03-19T15:45:33;16.40;99.90
5346;DHT22;2695;49.444;11.054;2023-03-19T15:48:07;16.40;99.90
5346;DHT22;2695;49.444;11.054;2023-03-19T15:50:41;16.40;99.90
5346;DHT22;2695;49.444;11.054;2023-03-19T15:53:14;16.40;99.90
5346;DHT22;2695;49.444;11.054;2023-03-19T15:55:47;16.40;99.90
5346;DHT22;2695;49.444;11.054;2023-03-19T15:58:18;16.30;99.90
5346;DHT22;2695;49.444;11.054;2023-03-19T16:00:48;16.30;99.90
5346;DHT22;2695;49.444;11.054;2023-03-19T16:03:25;16.10;99.90
5346;DHT22;2695;49.444;11.054;2023-03-19T16:05:59;16.10;99.90
5346;DHT22;2695;49.444;11.054;2023-03-19T16:08:29;16.00;99.90
5346;DHT22;2695;49.444;11.054;2023-03-19T16:11:20;15.90;99.90
5346;DHT22;2695;49.444;11.054;2023-03-19T16:13:58;15.80;99.90
5346;DHT22;2695;49.444;11.054;2023-03-19T16:16:28;15.70;99.90
5346;DHT22;2695;49.444;11.054;2023-03-19T16:18:59;15.60;99.90
5346;DHT22;2695;49.444;11.054;2023-03-19T16:21:32;15.60;99.90
5346;DHT22;2695;49.444;11.054;2023-03-19T16:24:03;15.60;99.90
5346;DHT22;2695;49.444;11.054;2023-03-19T16:26:37;15.50;99.90
5346;DHT22;2695;49.444;11.054;2023-03-19T16:29:17;15.50;99.90
5346;DHT22;2695;49.444;11.054;2023-03-19T16:31:49;15.40;99.90
5346;DHT22;2695;49.444;11.054;2023-03-19T16:34:39;15.30;99.90
5346;DHT22;2695;49.444;11.054;2023-03-19T16:37:31;15.20;99.90
5346;DHT22;2695;49.444;11.054;2023-03-19T16:40:02;15.20;99.90
5346;DHT22;2695;49.444;11.054;2023-03-19T16:42:40;15.20;99.90
5346;DHT22;2695;49.444;11.054;2023-03-19T16:45:20;15.10;99.90
5346;DHT22;2695;49.444;11.054;2023-03-19T16:47:49;15.10;99.90
5346;DHT22;2695;49.444;11.054;2023-03-19T16:50:24;15.00;99.90